sensor_id;sensor_type;location;lat;lon;timestamp;temperature;humidity
13598;DHT22;38563;54.258;12.574;2022-10-17T00:02:21;9.10;99.90
13598;DHT22;38563;54.258;12.574;2022-10-17T00:04:48;9.10;99.90
13598;DHT22;38563;54.258;12.574;2022-10-17T00:07:15;9.10;99.90
13598;DHT22;38563;54.258;12.574;2022-10-17T00:09:42;9.20;99.90
13598;DHT22;38563;54.258;12.574;2022-10-17T00:12:09;9.20;99.90
13598;DHT22;38563;54.258;12.574;2022-10-17T00:14:37;9.20;99.90
13598;DHT22;38563;54.258;12.574;2022-10-17T00:17:04;9.20;99.90
13598;DHT22;38563;54.258;12.574;2022-10-17T00:19:31;9.10;99.90
13598;DHT22;38563;54.258;12.574;2022-10-17T00:21:57;9.00;99.90
13598;DHT22;38563;54.258;12.574;2022-10-17T00:24:24;8.90;99.90
13598;DHT22;38563;54.258;12.574;2022-10-17T00:26:51;8.80;99.90
13598;DHT22;38563;54.258;12.574;2022-10-17T00:29:18;8.80;99.90
13598;DHT22;38563;54.258;12.574;2022-10-17T00:31:48;8.70;99.90
13598;DHT22;38563;54.258;12.574;2022-10-17T00:34:14;8.70;99.90
13598;DHT22;38563;54.258;12.574;2022-10-17T00:36:41;8.70;99.90
13598;DHT22;38563;54.258;12.574;2022-10-17T00:39:08;8.70;99.90
13598;DHT22;38563;54.258;12.574;2022-10-17T00:41:35;8.60;99.90
13598;DHT22;38563;54.258;12.574;2022-10-17T00:44:06;8.60;99.90
13598;DHT22;38563;54.258;12.574;2022-10-17T00:46:34;8.70;99.90
13598;DHT22;38563;54.258;12.574;2022-10-17T00:49:05;8.60;99.90
13598;DHT22;38563;54.258;12.574;2022-10-17T00:51:39;8.60;99.90
13598;DHT22;38563;54.258;12.574;2022-10-17T00:54:07;8.50;99.90
13598;DHT22;38563;54.258;12.574;2022-10-17T00:56:34;8.50;99.90
13598;DHT22;38563;54.258;12.574;2022-10-17T00:59:01;8.60;99.90
13598;DHT22;38563;54.258;12.574;2022-10-17T01:01:28;8.60;99.90
13598;DHT22;38563;54.258;12.574;2022-10-17T01:03:56;8.70;99.90
13598;DHT22;38563;54.258;12.574;2022-10-17T01:06:25;8.70;99.90
13598;DHT22;38563;54.258;12.574;2022-10-17T01:08:52;8.70;99.90
13598;DHT22;38563;54.258;12.574;2022-10-17T01:11:26;8.70;99.90
13598;DHT22;38563;54.258;12.574;2022-10-17T01:14:01;8.60;99.90
13598;DHT22;38563;54.258;12.574;2022-10-17T01:16:35;8.70;99.90
13598;DHT22;38563;54.258;12.574;2022-10-17T01:19:22;8.70;99.90
13598;DHT22;38563;54.258;12.574;2022-10-17T01:21:59;8.70;99.90
13598;DHT22;38563;54.258;12.574;2022-10-17T01:24:47;8.90;99.90
13598;DHT22;38563;54.258;12.574;2022-10-17T01:27:44;8.90;99.90
13598;DHT22;38563;54.258;12.574;2022-10-17T01:30:28;9.10;99.90
13598;DHT22;38563;54.258;12.574;2022-10-17T01:33:07;9.20;99.90
13598;DHT22;38563;54.258;12.574;2022-10-17T01:35:40;9.20;99.90
13598;DHT22;38563;54.258;12.574;2022-10-17T01:38:10;9.20;99.90
13598;DHT22;38563;54.258;12.574;2022-10-17T01:40:43;9.20;99.90
13598;DHT22;38563;54.258;12.574;2022-10-17T01:43:17;9.20;99.90
13598;DHT22;38563;54.258;12.574;2022-10-17T01:45:50;9.30;99.90
13598;DHT22;38563;54.258;12.574;2022-10-17T01:48:22;9.40;99.90
13598;DHT22;38563;54.258;12.574;2022-10-17T01:50:53;9.40;99.90
13598;DHT22;38563;54.258;12.574;2022-10-17T01:53:27;9.50;99.90
13598;DHT22;38563;54.258;12.574;2022-10-17T01:55:58;9.50;99.90
13598;DHT22;38563;54.258;12.574;2022-10-17T01:58:29;9.60;99.90
13598;DHT22;38563;54.258;12.574;2022-10-17T02:00:59;9.60;99.90
13598;DHT22;38563;54.258;12.574;2022-10-17T02:03:32;9.60;99.90
13598;DHT22;38563;54.258;12.574;2022-10-17T02:05:59;9.70;99.90
13598;DHT22;38563;54.258;12.574;2022-10-17T02:08:28;9.80;99.90
13598;DHT22;38563;54.258;12.574;2022-10-17T02:10:58;9.80;99.90
13598;DHT22;38563;54.258;12.574;2022-10-17T02:13:35;9.90;99.90
13598;DHT22;38563;54.258;12.574;2022-10-17T02:16:12;9.90;99.90
13598;DHT22;38563;54.258;12.574;2022-10-17T02:19:01;10.00;99.90
13598;DHT22;38563;54.258;12.574;2022-10-17T02:21:41;10.10;99.90
13598;DHT22;38563;54.258;12.574;2022-10-17T02:24:19;10.10;99.90
13598;DHT22;38563;54.258;12.574;2022-10-17T02:26:50;10.20;99.90
13598;DHT22;38563;54.258;12.574;2022-10-17T02:29:22;10.20;99.90
13598;DHT22;38563;54.258;12.574;2022-10-17T02:31:55;10.30;99.90
13598;DHT22;38563;54.258;12.574;2022-10-17T02:34:26;10.30;99.90
13598;DHT22;38563;54.258;12.574;2022-10-17T02:36:58;10.40;99.90
13598;DHT22;38563;54.258;12.574;2022-10-17T02:39:27;10.40;99.90
13598;DHT22;38563;54.258;12.574;2022-10-17T02:41:57;10.40;99.90
13598;DHT22;38563;54.258;12.574;2022-10-17T02:44:27;10.50;99.90
13598;DHT22;38563;54.258;12.574;2022-10-17T02:47:00;10.50;99.90
13598;DHT22;38563;54.258;12.574;2022-10-17T02:49:33;10.50;99.90
13598;DHT22;38563;54.258;12.574;2022-10-17T02:52:09;10.60;99.90
13598;DHT22;38563;54.258;12.574;2022-10-17T02:54:39;10.50;99.90
13598;DHT22;38563;54.258;12.574;2022-10-17T02:57:11;10.50;99.90
13598;DHT22;38563;54.258;12.574;2022-10-17T02:59:40;10.50;99.90
13598;DHT22;38563;54.258;12.574;2022-10-17T03:02:07;10.50;99.90
13598;DHT22;38563;54.258;12.574;2022-10-17T03:04:36;10.50;99.90
13598;DHT22;38563;54.258;12.574;2022-10-17T03:07:03;10.60;99.90
13598;DHT22;38563;54.258;12.574;2022-10-17T03:09:30;10.60;99.90
13598;DHT22;38563;54.258;12.574;2022-10-17T03:11:56;10.60;99.90
13598;DHT22;38563;54.258;12.574;2022-10-17T03:14:23;10.60;99.90
13598;DHT22;38563;54.258;12.574;2022-10-17T03:16:50;10.70;99.90
13598;DHT22;38563;54.258;12.574;2022-10-17T03:19:17;10.70;99.90
13598;DHT22;38563;54.258;12.574;2022-10-17T03:21:45;10.80;99.90
13598;DHT22;38563;54.258;12.574;2022-10-17T03:24:12;10.80;99.90
13598;DHT22;38563;54.258;12.574;2022-10-17T03:26:39;10.80;99.90
13598;DHT22;38563;54.258;12.574;2022-10-17T03:29:06;10.80;99.90
13598;DHT22;38563;54.258;12.574;2022-10-17T03:31:35;10.80;99.90
13598;DHT22;38563;54.258;12.574;2022-10-17T03:34:02;10.80;99.90
13598;DHT22;38563;54.258;12.574;2022-10-17T03:36:30;10.80;99.90
13598;DHT22;38563;54.258;12.574;2022-10-17T03:38:58;10.80;99.90
13598;DHT22;38563;54.258;12.574;2022-10-17T03:41:26;10.80;99.90
13598;DHT22;38563;54.258;12.574;2022-10-17T03:43:53;10.80;99.90
13598;DHT22;38563;54.258;12.574;2022-10-17T03:46:20;10.80;99.90
13598;DHT22;38563;54.258;12.574;2022-10-17T03:48:47;10.80;99.90
13598;DHT22;38563;54.258;12.574;2022-10-17T03:51:15;10.80;99.90
13598;DHT22;38563;54.258;12.574;2022-10-17T03:53:47;10.80;99.90
13598;DHT22;38563;54.258;12.574;2022-10-17T03:56:18;10.80;99.90
13598;DHT22;38563;54.258;12.574;2022-10-17T03:58:53;10.90;99.90
13598;DHT22;38563;54.258;12.574;2022-10-17T04:01:20;11.00;99.90
13598;DHT22;38563;54.258;12.574;2022-10-17T04:03:48;11.00;99.90
13598;DHT22;38563;54.258;12.574;2022-10-17T04:06:15;11.00;99.90
13598;DHT22;38563;54.258;12.574;2022-10-17T04:08:43;11.10;99.90
13598;DHT22;38563;54.258;12.574;2022-10-17T04:11:16;11.10;99.90
13598;DHT22;38563;54.258;12.574;2022-10-17T04:13:44;11.10;99.90
13598;DHT22;38563;54.258;12.574;2022-10-17T04:16:13;11.10;99.90
13598;DHT22;38563;54.258;12.574;2022-10-17T04:18:52;11.10;99.90
13598;DHT22;38563;54.258;12.574;2022-10-17T04:21:19;11.00;99.90
13598;DHT22;38563;54.258;12.574;2022-10-17T04:23:47;11.10;99.90
13598;DHT22;38563;54.258;12.574;2022-10-17T04:26:29;11.10;99.90
13598;DHT22;38563;54.258;12.574;2022-10-17T04:28:55;11.10;99.90
13598;DHT22;38563;54.258;12.574;2022-10-17T04:31:22;11.20;99.90
13598;DHT22;38563;54.258;12.574;2022-10-17T04:34:05;11.20;99.90
13598;DHT22;38563;54.258;12.574;2022-10-17T04:36:32;11.20;99.90
13598;DHT22;38563;54.258;12.574;2022-10-17T04:39:00;11.20;99.90
13598;DHT22;38563;54.258;12.574;2022-10-17T04:41:29;11.20;99.90
13598;DHT22;38563;54.258;12.574;2022-10-17T04:43:55;11.20;99.90
13598;DHT22;38563;54.258;12.574;2022-10-17T04:46:22;11.20;99.90
13598;DHT22;38563;54.258;12.574;2022-10-17T04:48:49;11.20;99.90
13598;DHT22;38563;54.258;12.574;2022-10-17T04:51:17;11.20;99.90
13598;DHT22;38563;54.258;12.574;2022-10-17T04:54:09;11.20;99.90
13598;DHT22;38563;54.258;12.574;2022-10-17T04:56:41;11.30;99.90
13598;DHT22;38563;54.258;12.574;2022-10-17T04:59:07;11.30;99.90
13598;DHT22;38563;54.258;12.574;2022-10-17T05:01:36;11.40;99.90
13598;DHT22;38563;54.258;12.574;2022-10-17T05:04:03;11.40;99.90
13598;DHT22;38563;54.258;12.574;2022-10-17T05:06:30;11.40;99.90
13598;DHT22;38563;54.258;12.574;2022-10-17T05:09:16;11.40;99.90
13598;DHT22;38563;54.258;12.574;2022-10-17T05:11:44;11.40;99.90
13598;DHT22;38563;54.258;12.574;2022-10-17T05:14:12;11.40;99.90
13598;DHT22;38563;54.258;12.574;2022-10-17T05:16:39;11.40;99.90
13598;DHT22;38563;54.258;12.574;2022-10-17T05:19:06;11.40;99.90
13598;DHT22;38563;54.258;12.574;2022-10-17T05:21:39;11.50;99.90
13598;DHT22;38563;54.258;12.574;2022-10-17T05:24:07;11.50;99.90
13598;DHT22;38563;54.258;12.574;2022-10-17T05:26:34;11.50;99.90
13598;DHT22;38563;54.258;12.574;2022-10-17T05:29:03;11.40;99.90
13598;DHT22;38563;54.258;12.574;2022-10-17T05:31:32;11.40;99.90
13598;DHT22;38563;54.258;12.574;2022-10-17T05:33:59;11.50;99.90
13598;DHT22;38563;54.258;12.574;2022-10-17T05:36:26;11.50;99.90
13598;DHT22;38563;54.258;12.574;2022-10-17T05:38:53;11.50;99.90
13598;DHT22;38563;54.258;12.574;2022-10-17T05:41:21;11.60;99.90
13598;DHT22;38563;54.258;12.574;2022-10-17T05:43:47;11.60;99.90
13598;DHT22;38563;54.258;12.574;2022-10-17T05:46:20;11.60;99.90
13598;DHT22;38563;54.258;12.574;2022-10-17T05:48:49;11.70;99.90
13598;DHT22;38563;54.258;12.574;2022-10-17T05:51:15;11.70;99.90
13598;DHT22;38563;54.258;12.574;2022-10-17T05:53:42;11.70;99.90
13598;DHT22;38563;54.258;12.574;2022-10-17T05:56:15;11.70;99.90
13598;DHT22;38563;54.258;12.574;2022-10-17T05:58:43;11.70;99.90
13598;DHT22;38563;54.258;12.574;2022-10-17T06:01:23;11.80;99.90
13598;DHT22;38563;54.258;12.574;2022-10-17T06:03:50;11.80;99.90
13598;DHT22;38563;54.258;12.574;2022-10-17T06:06:17;11.80;99.90
13598;DHT22;38563;54.258;12.574;2022-10-17T06:08:45;11.90;99.90
13598;DHT22;38563;54.258;12.574;2022-10-17T06:11:16;11.90;99.90
13598;DHT22;38563;54.258;12.574;2022-10-17T06:13:44;11.90;99.90
13598;DHT22;38563;54.258;12.574;2022-10-17T06:16:17;11.90;99.90
13598;DHT22;38563;54.258;12.574;2022-10-17T06:18:45;12.00;99.90
13598;DHT22;38563;54.258;12.574;2022-10-17T06:21:14;12.00;99.90
13598;DHT22;38563;54.258;12.574;2022-10-17T06:23:45;12.00;99.90
13598;DHT22;38563;54.258;12.574;2022-10-17T06:26:15;12.00;99.90
13598;DHT22;38563;54.258;12.574;2022-10-17T06:28:42;12.00;99.90
13598;DHT22;38563;54.258;12.574;2022-10-17T06:31:11;12.00;99.90
13598;DHT22;38563;54.258;12.574;2022-10-17T06:33:38;12.00;99.90
13598;DHT22;38563;54.258;12.574;2022-10-17T06:36:11;11.90;99.90
13598;DHT22;38563;54.258;12.574;2022-10-17T06:38:38;11.90;99.90
13598;DHT22;38563;54.258;12.574;2022-10-17T06:41:13;11.80;99.90
13598;DHT22;38563;54.258;12.574;2022-10-17T06:43:41;11.80;99.90
13598;DHT22;38563;54.258;12.574;2022-10-17T06:46:29;11.80;99.90
13598;DHT22;38563;54.258;12.574;2022-10-17T06:49:01;11.80;99.90
13598;DHT22;38563;54.258;12.574;2022-10-17T06:51:57;11.80;99.90
13598;DHT22;38563;54.258;12.574;2022-10-17T06:54:49;11.70;99.90
13598;DHT22;38563;54.258;12.574;2022-10-17T06:57:28;11.70;99.90
13598;DHT22;38563;54.258;12.574;2022-10-17T07:00:20;11.70;99.90
13598;DHT22;38563;54.258;12.574;2022-10-17T07:02:50;11.70;99.90
13598;DHT22;38563;54.258;12.574;2022-10-17T07:05:17;11.70;99.90
13598;DHT22;38563;54.258;12.574;2022-10-17T07:07:46;11.70;99.90
13598;DHT22;38563;54.258;12.574;2022-10-17T07:10:13;11.80;99.90
13598;DHT22;38563;54.258;12.574;2022-10-17T07:12:40;11.90;99.90
13598;DHT22;38563;54.258;12.574;2022-10-17T07:15:09;12.10;99.90
13598;DHT22;38563;54.258;12.574;2022-10-17T07:17:36;12.10;99.90
13598;DHT22;38563;54.258;12.574;2022-10-17T07:20:03;12.20;99.90
13598;DHT22;38563;54.258;12.574;2022-10-17T07:22:32;12.30;99.90
13598;DHT22;38563;54.258;12.574;2022-10-17T07:25:00;12.50;99.90
13598;DHT22;38563;54.258;12.574;2022-10-17T07:27:36;12.70;99.90
13598;DHT22;38563;54.258;12.574;2022-10-17T07:30:04;12.90;99.90
13598;DHT22;38563;54.258;12.574;2022-10-17T07:32:39;13.10;99.90
13598;DHT22;38563;54.258;12.574;2022-10-17T07:35:08;13.20;99.90
13598;DHT22;38563;54.258;12.574;2022-10-17T07:37:35;13.40;99.90
13598;DHT22;38563;54.258;12.574;2022-10-17T07:40:05;13.50;99.90
13598;DHT22;38563;54.258;12.574;2022-10-17T07:42:33;13.60;99.90
13598;DHT22;38563;54.258;12.574;2022-10-17T07:45:02;13.70;99.90
13598;DHT22;38563;54.258;12.574;2022-10-17T07:47:31;13.80;99.90
13598;DHT22;38563;54.258;12.574;2022-10-17T07:50:00;13.80;99.90
13598;DHT22;38563;54.258;12.574;2022-10-17T07:52:27;13.90;99.90
13598;DHT22;38563;54.258;12.574;2022-10-17T07:54:53;14.00;99.90
13598;DHT22;38563;54.258;12.574;2022-10-17T07:57:21;14.30;99.90
13598;DHT22;38563;54.258;12.574;2022-10-17T07:59:48;14.40;99.90
13598;DHT22;38563;54.258;12.574;2022-10-17T08:02:20;14.60;99.90
13598;DHT22;38563;54.258;12.574;2022-10-17T08:04:47;14.70;99.90
13598;DHT22;38563;54.258;12.574;2022-10-17T08:07:13;14.70;99.90
13598;DHT22;38563;54.258;12.574;2022-10-17T08:09:41;14.70;99.90
13598;DHT22;38563;54.258;12.574;2022-10-17T08:12:08;14.70;99.90
13598;DHT22;38563;54.258;12.574;2022-10-17T08:14:36;14.80;99.90
13598;DHT22;38563;54.258;12.574;2022-10-17T08:17:03;14.80;99.90
13598;DHT22;38563;54.258;12.574;2022-10-17T08:19:30;14.90;99.90
13598;DHT22;38563;54.258;12.574;2022-10-17T08:21:57;14.90;99.90
13598;DHT22;38563;54.258;12.574;2022-10-17T08:24:23;14.90;99.90
13598;DHT22;38563;54.258;12.574;2022-10-17T08:26:50;15.00;99.90
13598;DHT22;38563;54.258;12.574;2022-10-17T08:29:18;15.00;99.90
13598;DHT22;38563;54.258;12.574;2022-10-17T08:31:46;15.00;99.90
13598;DHT22;38563;54.258;12.574;2022-10-17T08:34:13;15.10;99.90
13598;DHT22;38563;54.258;12.574;2022-10-17T08:36:41;15.20;99.90
13598;DHT22;38563;54.258;12.574;2022-10-17T08:39:07;15.30;99.90
13598;DHT22;38563;54.258;12.574;2022-10-17T08:41:48;15.40;99.90
13598;DHT22;38563;54.258;12.574;2022-10-17T08:44:25;15.50;99.90
13598;DHT22;38563;54.258;12.574;2022-10-17T08:46:57;15.50;99.90
13598;DHT22;38563;54.258;12.574;2022-10-17T08:49:30;15.60;99.90
13598;DHT22;38563;54.258;12.574;2022-10-17T08:52:03;15.70;99.90
13598;DHT22;38563;54.258;12.574;2022-10-17T08:54:38;15.70;99.90
13598;DHT22;38563;54.258;12.574;2022-10-17T08:57:11;15.90;99.90
13598;DHT22;38563;54.258;12.574;2022-10-17T08:59:40;16.00;99.90
13598;DHT22;38563;54.258;12.574;2022-10-17T09:02:21;16.10;99.90
13598;DHT22;38563;54.258;12.574;2022-10-17T09:05:09;16.20;99.90
13598;DHT22;38563;54.258;12.574;2022-10-17T09:07:44;16.20;99.90
13598;DHT22;38563;54.258;12.574;2022-10-17T09:10:17;16.30;99.90
13598;DHT22;38563;54.258;12.574;2022-10-17T09:13:02;16.30;99.90
13598;DHT22;38563;54.258;12.574;2022-10-17T09:15:47;16.30;99.90
13598;DHT22;38563;54.258;12.574;2022-10-17T09:18:18;16.20;99.90
13598;DHT22;38563;54.258;12.574;2022-10-17T09:20:51;16.20;99.90
13598;DHT22;38563;54.258;12.574;2022-10-17T09:23:22;16.20;99.90
13598;DHT22;38563;54.258;12.574;2022-10-17T09:25:53;16.30;99.90
13598;DHT22;38563;54.258;12.574;2022-10-17T09:28:22;16.40;99.90
13598;DHT22;38563;54.258;12.574;2022-10-17T09:30:55;16.60;99.90
13598;DHT22;38563;54.258;12.574;2022-10-17T09:33:27;16.80;99.90
13598;DHT22;38563;54.258;12.574;2022-10-17T09:35:56;16.90;99.90
13598;DHT22;38563;54.258;12.574;2022-10-17T09:38:27;17.20;99.90
13598;DHT22;38563;54.258;12.574;2022-10-17T09:40:56;17.20;99.90
13598;DHT22;38563;54.258;12.574;2022-10-17T09:43:24;17.30;99.90
13598;DHT22;38563;54.258;12.574;2022-10-17T09:45:58;17.30;99.90
13598;DHT22;38563;54.258;12.574;2022-10-17T09:48:34;17.40;99.90
13598;DHT22;38563;54.258;12.574;2022-10-17T09:51:05;17.40;99.90
13598;DHT22;38563;54.258;12.574;2022-10-17T09:53:36;17.40;99.90
13598;DHT22;38563;54.258;12.574;2022-10-17T09:56:07;17.50;99.90
13598;DHT22;38563;54.258;12.574;2022-10-17T09:58:42;17.60;99.90
13598;DHT22;38563;54.258;12.574;2022-10-17T10:01:21;17.60;99.90
13598;DHT22;38563;54.258;12.574;2022-10-17T10:04:08;17.60;99.90
13598;DHT22;38563;54.258;12.574;2022-10-17T10:06:35;17.70;99.90
13598;DHT22;38563;54.258;12.574;2022-10-17T10:09:02;17.80;99.90
13598;DHT22;38563;54.258;12.574;2022-10-17T10:11:46;17.90;99.90
13598;DHT22;38563;54.258;12.574;2022-10-17T10:14:20;18.00;99.90
13598;DHT22;38563;54.258;12.574;2022-10-17T10:16:48;18.10;99.90
13598;DHT22;38563;54.258;12.574;2022-10-17T10:19:27;18.10;99.90
13598;DHT22;38563;54.258;12.574;2022-10-17T10:21:56;18.20;99.90
13598;DHT22;38563;54.258;12.574;2022-10-17T10:24:23;18.30;99.90
13598;DHT22;38563;54.258;12.574;2022-10-17T10:26:51;18.50;99.90
13598;DHT22;38563;54.258;12.574;2022-10-17T10:29:22;18.50;99.90
13598;DHT22;38563;54.258;12.574;2022-10-17T10:31:52;18.50;99.90
13598;DHT22;38563;54.258;12.574;2022-10-17T10:34:23;18.50;99.90
13598;DHT22;38563;54.258;12.574;2022-10-17T10:36:56;18.60;99.90
13598;DHT22;38563;54.258;12.574;2022-10-17T10:39:40;18.50;99.90
13598;DHT22;38563;54.258;12.574;2022-10-17T10:42:17;18.40;99.90
13598;DHT22;38563;54.258;12.574;2022-10-17T10:44:45;18.40;99.90
13598;DHT22;38563;54.258;12.574;2022-10-17T10:47:16;18.40;99.90
13598;DHT22;38563;54.258;12.574;2022-10-17T10:49:45;18.50;99.90
13598;DHT22;38563;54.258;12.574;2022-10-17T10:52:20;18.50;99.90
13598;DHT22;38563;54.258;12.574;2022-10-17T10:54:54;18.60;99.90
13598;DHT22;38563;54.258;12.574;2022-10-17T10:57:25;18.70;99.90
13598;DHT22;38563;54.258;12.574;2022-10-17T10:59:57;18.80;99.90
13598;DHT22;38563;54.258;12.574;2022-10-17T11:02:29;18.90;99.90
13598;DHT22;38563;54.258;12.574;2022-10-17T11:05:03;19.10;99.90
13598;DHT22;38563;54.258;12.574;2022-10-17T11:07:33;19.20;99.90
13598;DHT22;38563;54.258;12.574;2022-10-17T11:10:07;19.30;99.90
13598;DHT22;38563;54.258;12.574;2022-10-17T11:12:42;19.30;99.90
13598;DHT22;38563;54.258;12.574;2022-10-17T11:15:18;19.40;99.90
13598;DHT22;38563;54.258;12.574;2022-10-17T11:17:51;19.40;99.90
13598;DHT22;38563;54.258;12.574;2022-10-17T11:20:29;19.50;99.90
13598;DHT22;38563;54.258;12.574;2022-10-17T11:23:03;19.50;99.90
13598;DHT22;38563;54.258;12.574;2022-10-17T11:25:36;19.60;99.90
13598;DHT22;38563;54.258;12.574;2022-10-17T11:28:11;19.60;99.90
13598;DHT22;38563;54.258;12.574;2022-10-17T11:30:43;19.70;99.90
13598;DHT22;38563;54.258;12.574;2022-10-17T11:33:16;19.70;99.90
13598;DHT22;38563;54.258;12.574;2022-10-17T11:35:47;19.80;99.90
13598;DHT22;38563;54.258;12.574;2022-10-17T11:38:17;19.80;99.90
13598;DHT22;38563;54.258;12.574;2022-10-17T11:40:49;19.90;99.90
13598;DHT22;38563;54.258;12.574;2022-10-17T11:43:18;20.00;99.90
13598;DHT22;38563;54.258;12.574;2022-10-17T11:45:49;20.00;99.90
13598;DHT22;38563;54.258;12.574;2022-10-17T11:48:21;20.00;99.90
13598;DHT22;38563;54.258;12.574;2022-10-17T11:50:55;20.00;99.90
13598;DHT22;38563;54.258;12.574;2022-10-17T11:53:29;20.00;99.90
13598;DHT22;38563;54.258;12.574;2022-10-17T11:55:57;20.00;99.90
13598;DHT22;38563;54.258;12.574;2022-10-17T11:58:34;20.00;99.90
13598;DHT22;38563;54.258;12.574;2022-10-17T12:01:12;20.20;99.90
13598;DHT22;38563;54.258;12.574;2022-10-17T12:03:49;20.20;99.90
13598;DHT22;38563;54.258;12.574;2022-10-17T12:06:33;20.20;99.90
13598;DHT22;38563;54.258;12.574;2022-10-17T12:09:09;20.30;99.90
13598;DHT22;38563;54.258;12.574;2022-10-17T12:11:44;20.40;99.90
13598;DHT22;38563;54.258;12.574;2022-10-17T12:14:36;20.50;99.90
13598;DHT22;38563;54.258;12.574;2022-10-17T12:17:05;20.70;99.90
13598;DHT22;38563;54.258;12.574;2022-10-17T12:19:46;20.70;99.90
13598;DHT22;38563;54.258;12.574;2022-10-17T12:22:22;20.70;99.90
13598;DHT22;38563;54.258;12.574;2022-10-17T12:25:15;20.80;99.90
13598;DHT22;38563;54.258;12.574;2022-10-17T12:27:42;21.00;99.90
13598;DHT22;38563;54.258;12.574;2022-10-17T12:30:19;21.10;99.90
13598;DHT22;38563;54.258;12.574;2022-10-17T12:33:02;21.00;99.90
13598;DHT22;38563;54.258;12.574;2022-10-17T12:35:32;20.90;99.90
13598;DHT22;38563;54.258;12.574;2022-10-17T12:41:05;20.70;99.90
13598;DHT22;38563;54.258;12.574;2022-10-17T12:43:50;20.60;99.90
13598;DHT22;38563;54.258;12.574;2022-10-17T12:49:41;20.50;99.90
13598;DHT22;38563;54.258;12.574;2022-10-17T12:55:11;20.50;99.90
13598;DHT22;38563;54.258;12.574;2022-10-17T12:57:50;20.50;99.90
13598;DHT22;38563;54.258;12.574;2022-10-17T13:00:22;20.60;99.90
13598;DHT22;38563;54.258;12.574;2022-10-17T13:02:53;20.70;99.90
13598;DHT22;38563;54.258;12.574;2022-10-17T13:05:26;20.70;99.90
13598;DHT22;38563;54.258;12.574;2022-10-17T13:07:54;20.90;99.90
13598;DHT22;38563;54.258;12.574;2022-10-17T13:10:27;21.10;99.90
13598;DHT22;38563;54.258;12.574;2022-10-17T13:13:03;21.20;99.90
13598;DHT22;38563;54.258;12.574;2022-10-17T13:15:30;21.30;99.90
13598;DHT22;38563;54.258;12.574;2022-10-17T13:17:58;21.20;99.90
13598;DHT22;38563;54.258;12.574;2022-10-17T13:20:28;21.20;99.90
13598;DHT22;38563;54.258;12.574;2022-10-17T13:22:55;21.20;99.90
13598;DHT22;38563;54.258;12.574;2022-10-17T13:25:25;21.10;99.90
13598;DHT22;38563;54.258;12.574;2022-10-17T13:28:09;21.20;99.90
13598;DHT22;38563;54.258;12.574;2022-10-17T13:30:37;21.20;99.90
13598;DHT22;38563;54.258;12.574;2022-10-17T13:33:27;21.20;99.90
13598;DHT22;38563;54.258;12.574;2022-10-17T13:35:54;21.20;99.90
13598;DHT22;38563;54.258;12.574;2022-10-17T13:38:25;21.10;99.90
13598;DHT22;38563;54.258;12.574;2022-10-17T13:40:53;21.10;99.90
13598;DHT22;38563;54.258;12.574;2022-10-17T13:43:21;21.00;99.90
13598;DHT22;38563;54.258;12.574;2022-10-17T13:45:50;20.90;99.90
13598;DHT22;38563;54.258;12.574;2022-10-17T13:48:20;20.80;99.90
13598;DHT22;38563;54.258;12.574;2022-10-17T13:50:49;20.70;99.90
13598;DHT22;38563;54.258;12.574;2022-10-17T13:53:21;20.60;99.90
13598;DHT22;38563;54.258;12.574;2022-10-17T13:55:56;20.60;99.90
13598;DHT22;38563;54.258;12.574;2022-10-17T13:58:24;20.60;99.90
13598;DHT22;38563;54.258;12.574;2022-10-17T14:00:51;20.60;99.90
13598;DHT22;38563;54.258;12.574;2022-10-17T14:03:19;20.80;99.90
13598;DHT22;38563;54.258;12.574;2022-10-17T14:06:06;20.80;99.90
13598;DHT22;38563;54.258;12.574;2022-10-17T14:08:35;20.80;99.90
13598;DHT22;38563;54.258;12.574;2022-10-17T14:11:15;20.90;99.90
13598;DHT22;38563;54.258;12.574;2022-10-17T14:13:47;20.90;99.90
13598;DHT22;38563;54.258;12.574;2022-10-17T14:16:15;20.80;99.90
13598;DHT22;38563;54.258;12.574;2022-10-17T14:18:44;20.60;99.90
13598;DHT22;38563;54.258;12.574;2022-10-17T14:21:18;20.60;99.90
13598;DHT22;38563;54.258;12.574;2022-10-17T14:23:45;20.50;99.90
13598;DHT22;38563;54.258;12.574;2022-10-17T14:26:15;20.40;99.90
13598;DHT22;38563;54.258;12.574;2022-10-17T14:28:44;20.40;99.90
13598;DHT22;38563;54.258;12.574;2022-10-17T14:31:19;20.40;99.90
13598;DHT22;38563;54.258;12.574;2022-10-17T14:33:47;20.30;99.90
13598;DHT22;38563;54.258;12.574;2022-10-17T14:36:15;20.10;99.90
13598;DHT22;38563;54.258;12.574;2022-10-17T14:38:45;20.10;99.90
13598;DHT22;38563;54.258;12.574;2022-10-17T14:41:18;20.10;99.90
13598;DHT22;38563;54.258;12.574;2022-10-17T14:43:52;20.10;99.90
13598;DHT22;38563;54.258;12.574;2022-10-17T14:46:19;19.90;99.90
13598;DHT22;38563;54.258;12.574;2022-10-17T14:48:51;19.60;99.90
13598;DHT22;38563;54.258;12.574;2022-10-17T14:51:19;19.40;99.90
13598;DHT22;38563;54.258;12.574;2022-10-17T14:54:00;19.20;99.90
13598;DHT22;38563;54.258;12.574;2022-10-17T14:56:36;19.10;99.90
13598;DHT22;38563;54.258;12.574;2022-10-17T14:59:04;19.00;99.90
13598;DHT22;38563;54.258;12.574;2022-10-17T15:01:32;19.00;99.90
13598;DHT22;38563;54.258;12.574;2022-10-17T15:03:59;18.90;99.90
13598;DHT22;38563;54.258;12.574;2022-10-17T15:06:28;18.80;99.90
13598;DHT22;38563;54.258;12.574;2022-10-17T15:08:56;18.70;99.90
13598;DHT22;38563;54.258;12.574;2022-10-17T15:11:23;18.70;99.90
13598;DHT22;38563;54.258;12.574;2022-10-17T15:13:51;18.70;99.90
13598;DHT22;38563;54.258;12.574;2022-10-17T15:16:20;18.70;99.90
13598;DHT22;38563;54.258;12.574;2022-10-17T15:18:47;18.70;99.90
13598;DHT22;38563;54.258;12.574;2022-10-17T15:21:17;18.70;99.90
13598;DHT22;38563;54.258;12.574;2022-10-17T15:23:44;18.70;99.90
13598;DHT22;38563;54.258;12.574;2022-10-17T15:26:14;18.60;99.90
13598;DHT22;38563;54.258;12.574;2022-10-17T15:28:41;18.60;99.90
13598;DHT22;38563;54.258;12.574;2022-10-17T15:31:11;18.60;99.90
13598;DHT22;38563;54.258;12.574;2022-10-17T15:33:38;18.60;99.90
13598;DHT22;38563;54.258;12.574;2022-10-17T15:36:16;18.60;99.90
13598;DHT22;38563;54.258;12.574;2022-10-17T15:38:43;18.70;99.90
13598;DHT22;38563;54.258;12.574;2022-10-17T15:41:10;18.70;99.90
13598;DHT22;38563;54.258;12.574;2022-10-17T15:43:37;18.60;99.90
13598;DHT22;38563;54.258;12.574;2022-10-17T15:46:11;18.70;99.90
13598;DHT22;38563;54.258;12.574;2022-10-17T15:48:39;18.70;99.90
13598;DHT22;38563;54.258;12.574;2022-10-17T15:51:06;18.60;99.90
13598;DHT22;38563;54.258;12.574;2022-10-17T15:53:33;18.60;99.90